sensor_id;sensor_type;location;lat;lon;timestamp;temperature;humidity
39503;DHT22;26970;49.900;10.774;2022-12-24T00:00:13;9.40;99.90
39503;DHT22;26970;49.900;10.774;2022-12-24T00:02:38;9.40;99.90
39503;DHT22;26970;49.900;10.774;2022-12-24T00:05:04;9.40;99.90
39503;DHT22;26970;49.900;10.774;2022-12-24T00:07:30;9.30;99.90
39503;DHT22;26970;49.900;10.774;2022-12-24T00:09:56;9.30;99.90
39503;DHT22;26970;49.900;10.774;2022-12-24T00:12:21;9.30;99.90
39503;DHT22;26970;49.900;10.774;2022-12-24T00:14:47;9.30;99.90
39503;DHT22;26970;49.900;10.774;2022-12-24T00:17:13;9.30;99.90
39503;DHT22;26970;49.900;10.774;2022-12-24T00:19:38;9.30;99.90
39503;DHT22;26970;49.900;10.774;2022-12-24T00:22:04;9.30;99.90
39503;DHT22;26970;49.900;10.774;2022-12-24T00:24:29;9.30;99.90
39503;DHT22;26970;49.900;10.774;2022-12-24T00:26:55;9.30;99.90
39503;DHT22;26970;49.900;10.774;2022-12-24T00:29:20;9.30;99.90
39503;DHT22;26970;49.900;10.774;2022-12-24T00:31:46;9.30;99.90
39503;DHT22;26970;49.900;10.774;2022-12-24T00:34:11;9.40;99.90
39503;DHT22;26970;49.900;10.774;2022-12-24T00:36:36;9.40;99.90
39503;DHT22;26970;49.900;10.774;2022-12-24T00:39:02;9.40;99.90
39503;DHT22;26970;49.900;10.774;2022-12-24T00:41:28;9.30;99.90
39503;DHT22;26970;49.900;10.774;2022-12-24T00:43:59;9.30;99.90
39503;DHT22;26970;49.900;10.774;2022-12-24T00:46:27;9.30;99.90
39503;DHT22;26970;49.900;10.774;2022-12-24T00:48:52;9.30;99.90
39503;DHT22;26970;49.900;10.774;2022-12-24T00:51:19;9.30;99.90
39503;DHT22;26970;49.900;10.774;2022-12-24T00:53:45;9.30;99.90
39503;DHT22;26970;49.900;10.774;2022-12-24T00:56:10;9.30;99.90
39503;DHT22;26970;49.900;10.774;2022-12-24T00:58:36;9.20;99.90
39503;DHT22;26970;49.900;10.774;2022-12-24T01:01:02;9.20;99.90
39503;DHT22;26970;49.900;10.774;2022-12-24T01:03:28;9.20;99.90
39503;DHT22;26970;49.900;10.774;2022-12-24T01:06:03;9.20;99.90
39503;DHT22;26970;49.900;10.774;2022-12-24T01:08:29;9.20;99.90
39503;DHT22;26970;49.900;10.774;2022-12-24T01:10:55;9.10;99.90
39503;DHT22;26970;49.900;10.774;2022-12-24T01:13:21;9.10;99.90
39503;DHT22;26970;49.900;10.774;2022-12-24T01:15:47;9.10;99.90
39503;DHT22;26970;49.900;10.774;2022-12-24T01:18:12;9.20;99.90
39503;DHT22;26970;49.900;10.774;2022-12-24T01:20:38;9.20;99.90
39503;DHT22;26970;49.900;10.774;2022-12-24T01:23:03;9.20;99.90
39503;DHT22;26970;49.900;10.774;2022-12-24T01:25:29;9.20;99.90
39503;DHT22;26970;49.900;10.774;2022-12-24T01:27:54;9.30;99.90
39503;DHT22;26970;49.900;10.774;2022-12-24T01:30:20;9.30;99.90
39503;DHT22;26970;49.900;10.774;2022-12-24T01:32:45;9.30;99.90
39503;DHT22;26970;49.900;10.774;2022-12-24T01:35:11;9.20;99.90
39503;DHT22;26970;49.900;10.774;2022-12-24T01:37:37;9.20;99.90
39503;DHT22;26970;49.900;10.774;2022-12-24T01:40:05;9.20;99.90
39503;DHT22;26970;49.900;10.774;2022-12-24T01:42:52;9.20;99.90
39503;DHT22;26970;49.900;10.774;2022-12-24T01:48:02;9.10;99.90
39503;DHT22;26970;49.900;10.774;2022-12-24T01:50:28;9.20;99.90
39503;DHT22;26970;49.900;10.774;2022-12-24T01:52:53;9.10;99.90
39503;DHT22;26970;49.900;10.774;2022-12-24T01:55:19;9.10;99.90
39503;DHT22;26970;49.900;10.774;2022-12-24T01:57:49;9.10;99.90
39503;DHT22;26970;49.900;10.774;2022-12-24T02:00:16;9.10;99.90
39503;DHT22;26970;49.900;10.774;2022-12-24T02:02:44;9.00;99.90
39503;DHT22;26970;49.900;10.774;2022-12-24T02:05:50;9.00;99.90
39503;DHT22;26970;49.900;10.774;2022-12-24T02:08:07;9.00;99.90
39503;DHT22;26970;49.900;10.774;2022-12-24T02:10:33;8.90;99.90
39503;DHT22;26970;49.900;10.774;2022-12-24T02:12:59;8.90;99.90
39503;DHT22;26970;49.900;10.774;2022-12-24T02:15:27;8.90;99.90
39503;DHT22;26970;49.900;10.774;2022-12-24T02:18:13;8.90;99.90
39503;DHT22;26970;49.900;10.774;2022-12-24T02:35:06;8.80;99.90
39503;DHT22;26970;49.900;10.774;2022-12-24T02:37:39;8.80;99.90
39503;DHT22;26970;49.900;10.774;2022-12-24T02:40:10;8.80;99.90
39503;DHT22;26970;49.900;10.774;2022-12-24T02:42:40;8.40;99.90
39503;DHT22;26970;49.900;10.774;2022-12-24T02:45:15;8.70;99.90
39503;DHT22;26970;49.900;10.774;2022-12-24T02:47:43;8.80;99.90
39503;DHT22;26970;49.900;10.774;2022-12-24T02:50:12;8.80;99.90
39503;DHT22;26970;49.900;10.774;2022-12-24T02:52:41;8.80;99.90
39503;DHT22;26970;49.900;10.774;2022-12-24T02:58:09;8.70;99.90
39503;DHT22;26970;49.900;10.774;2022-12-24T03:01:09;8.70;99.90
39503;DHT22;26970;49.900;10.774;2022-12-24T03:09:23;8.30;99.90
39503;DHT22;26970;49.900;10.774;2022-12-24T03:11:54;8.70;99.90
39503;DHT22;26970;49.900;10.774;2022-12-24T03:14:22;8.80;99.90
39503;DHT22;26970;49.900;10.774;2022-12-24T03:16:48;8.70;99.90
39503;DHT22;26970;49.900;10.774;2022-12-24T03:19:14;8.70;99.90
39503;DHT22;26970;49.900;10.774;2022-12-24T03:21:40;8.70;99.90
39503;DHT22;26970;49.900;10.774;2022-12-24T03:24:07;8.70;99.90
39503;DHT22;26970;49.900;10.774;2022-12-24T03:26:35;8.80;99.90
39503;DHT22;26970;49.900;10.774;2022-12-24T03:29:06;8.80;99.90
39503;DHT22;26970;49.900;10.774;2022-12-24T03:31:42;8.80;99.90
39503;DHT22;26970;49.900;10.774;2022-12-24T03:34:09;8.90;99.90
39503;DHT22;26970;49.900;10.774;2022-12-24T03:36:34;8.90;99.90
39503;DHT22;26970;49.900;10.774;2022-12-24T03:39:00;8.90;99.90
39503;DHT22;26970;49.900;10.774;2022-12-24T03:41:25;8.90;99.90
39503;DHT22;26970;49.900;10.774;2022-12-24T03:43:51;8.80;99.90
39503;DHT22;26970;49.900;10.774;2022-12-24T03:46:16;8.70;99.90
39503;DHT22;26970;49.900;10.774;2022-12-24T03:48:42;8.60;99.90
39503;DHT22;26970;49.900;10.774;2022-12-24T03:51:16;8.60;99.90
39503;DHT22;26970;49.900;10.774;2022-12-24T03:53:43;8.60;99.90
39503;DHT22;26970;49.900;10.774;2022-12-24T03:56:08;8.70;99.90
39503;DHT22;26970;49.900;10.774;2022-12-24T03:58:34;8.50;99.90
39503;DHT22;26970;49.900;10.774;2022-12-24T04:00:59;8.50;99.90
39503;DHT22;26970;49.900;10.774;2022-12-24T04:03:25;8.50;99.90
39503;DHT22;26970;49.900;10.774;2022-12-24T04:06:05;8.50;99.90
39503;DHT22;26970;49.900;10.774;2022-12-24T04:08:31;8.50;99.90
39503;DHT22;26970;49.900;10.774;2022-12-24T04:10:57;8.40;99.90
39503;DHT22;26970;49.900;10.774;2022-12-24T04:13:23;8.50;99.90
39503;DHT22;26970;49.900;10.774;2022-12-24T04:15:58;8.40;99.90
39503;DHT22;26970;49.900;10.774;2022-12-24T04:18:24;8.50;99.90
39503;DHT22;26970;49.900;10.774;2022-12-24T04:20:50;8.40;99.90
39503;DHT22;26970;49.900;10.774;2022-12-24T04:23:16;8.40;99.90
39503;DHT22;26970;49.900;10.774;2022-12-24T04:25:41;8.40;99.90
39503;DHT22;26970;49.900;10.774;2022-12-24T04:28:07;8.40;99.90
39503;DHT22;26970;49.900;10.774;2022-12-24T04:30:32;8.30;99.90
39503;DHT22;26970;49.900;10.774;2022-12-24T04:32:58;8.30;99.90
39503;DHT22;26970;49.900;10.774;2022-12-24T04:35:23;8.30;99.90
39503;DHT22;26970;49.900;10.774;2022-12-24T04:37:49;8.30;99.90
39503;DHT22;26970;49.900;10.774;2022-12-24T04:40:14;8.30;99.90
39503;DHT22;26970;49.900;10.774;2022-12-24T04:42:40;8.30;99.90
39503;DHT22;26970;49.900;10.774;2022-12-24T04:45:06;8.30;99.90
39503;DHT22;26970;49.900;10.774;2022-12-24T04:47:31;8.20;99.90
39503;DHT22;26970;49.900;10.774;2022-12-24T04:49:57;8.50;99.90
39503;DHT22;26970;49.900;10.774;2022-12-24T04:52:23;8.30;99.90
39503;DHT22;26970;49.900;10.774;2022-12-24T04:54:49;8.30;99.90
39503;DHT22;26970;49.900;10.774;2022-12-24T04:57:14;8.40;99.90
39503;DHT22;26970;49.900;10.774;2022-12-24T04:59:40;8.40;99.90
39503;DHT22;26970;49.900;10.774;2022-12-24T05:02:05;8.40;99.90
39503;DHT22;26970;49.900;10.774;2022-12-24T05:04:31;8.40;99.90
39503;DHT22;26970;49.900;10.774;2022-12-24T05:06:56;8.40;99.90
39503;DHT22;26970;49.900;10.774;2022-12-24T05:09:22;8.40;99.90
39503;DHT22;26970;49.900;10.774;2022-12-24T05:11:47;8.40;99.90
39503;DHT22;26970;49.900;10.774;2022-12-24T05:14:13;8.50;99.90
39503;DHT22;26970;49.900;10.774;2022-12-24T05:16:38;8.40;99.90
39503;DHT22;26970;49.900;10.774;2022-12-24T05:19:04;8.40;99.90
39503;DHT22;26970;49.900;10.774;2022-12-24T05:21:29;8.50;99.90
39503;DHT22;26970;49.900;10.774;2022-12-24T05:23:55;8.50;99.90
39503;DHT22;26970;49.900;10.774;2022-12-24T05:26:49;8.50;99.90
39503;DHT22;26970;49.900;10.774;2022-12-24T05:29:15;8.50;99.90
39503;DHT22;26970;49.900;10.774;2022-12-24T05:31:41;8.50;99.90
39503;DHT22;26970;49.900;10.774;2022-12-24T05:34:08;8.60;99.90
39503;DHT22;26970;49.900;10.774;2022-12-24T05:36:34;8.50;99.90
39503;DHT22;26970;49.900;10.774;2022-12-24T05:39:00;7.60;99.90
39503;DHT22;26970;49.900;10.774;2022-12-24T05:41:25;8.40;99.90
39503;DHT22;26970;49.900;10.774;2022-12-24T05:43:51;8.40;99.90
39503;DHT22;26970;49.900;10.774;2022-12-24T05:46:19;8.40;99.90
39503;DHT22;26970;49.900;10.774;2022-12-24T05:48:46;8.50;99.90
39503;DHT22;26970;49.900;10.774;2022-12-24T05:51:12;8.40;99.90
39503;DHT22;26970;49.900;10.774;2022-12-24T05:53:39;8.40;99.90
39503;DHT22;26970;49.900;10.774;2022-12-24T05:56:13;8.40;99.90
39503;DHT22;26970;49.900;10.774;2022-12-24T05:58:40;8.50;99.90
39503;DHT22;26970;49.900;10.774;2022-12-24T06:01:06;8.50;99.90
39503;DHT22;26970;49.900;10.774;2022-12-24T06:03:33;8.40;99.90
39503;DHT22;26970;49.900;10.774;2022-12-24T06:06:04;8.50;99.90
39503;DHT22;26970;49.900;10.774;2022-12-24T06:08:31;8.40;99.90
39503;DHT22;26970;49.900;10.774;2022-12-24T06:10:59;8.40;99.90
39503;DHT22;26970;49.900;10.774;2022-12-24T06:13:25;8.50;99.90
39503;DHT22;26970;49.900;10.774;2022-12-24T06:15:57;8.40;99.90
39503;DHT22;26970;49.900;10.774;2022-12-24T06:18:22;8.40;99.90
39503;DHT22;26970;49.900;10.774;2022-12-24T06:20:55;8.40;99.90
39503;DHT22;26970;49.900;10.774;2022-12-24T06:23:22;8.30;99.90
39503;DHT22;26970;49.900;10.774;2022-12-24T06:25:48;8.30;99.90
39503;DHT22;26970;49.900;10.774;2022-12-24T06:28:14;8.20;99.90
39503;DHT22;26970;49.900;10.774;2022-12-24T06:30:40;8.20;99.90
39503;DHT22;26970;49.900;10.774;2022-12-24T06:33:06;8.20;99.90
39503;DHT22;26970;49.900;10.774;2022-12-24T06:35:32;8.20;99.90
39503;DHT22;26970;49.900;10.774;2022-12-24T06:37:58;8.20;99.90
39503;DHT22;26970;49.900;10.774;2022-12-24T06:40:25;8.20;99.90
39503;DHT22;26970;49.900;10.774;2022-12-24T06:42:50;8.20;99.90
39503;DHT22;26970;49.900;10.774;2022-12-24T06:45:16;8.20;99.90
39503;DHT22;26970;49.900;10.774;2022-12-24T06:47:42;8.10;99.90
39503;DHT22;26970;49.900;10.774;2022-12-24T06:50:07;8.10;99.90
39503;DHT22;26970;49.900;10.774;2022-12-24T06:52:33;8.10;99.90
39503;DHT22;26970;49.900;10.774;2022-12-24T06:54:59;8.10;99.90
39503;DHT22;26970;49.900;10.774;2022-12-24T06:57:24;8.10;99.90
39503;DHT22;26970;49.900;10.774;2022-12-24T06:59:50;8.20;99.90
39503;DHT22;26970;49.900;10.774;2022-12-24T07:02:15;8.20;99.90
39503;DHT22;26970;49.900;10.774;2022-12-24T07:04:41;8.20;99.90
39503;DHT22;26970;49.900;10.774;2022-12-24T07:07:06;8.30;99.90
39503;DHT22;26970;49.900;10.774;2022-12-24T07:09:32;8.30;99.90
39503;DHT22;26970;49.900;10.774;2022-12-24T07:11:57;8.40;99.90
39503;DHT22;26970;49.900;10.774;2022-12-24T07:14:23;8.40;99.90
39503;DHT22;26970;49.900;10.774;2022-12-24T07:16:48;8.40;99.90
39503;DHT22;26970;49.900;10.774;2022-12-24T07:19:14;8.40;99.90
39503;DHT22;26970;49.900;10.774;2022-12-24T07:21:39;8.40;99.90
39503;DHT22;26970;49.900;10.774;2022-12-24T07:24:05;8.40;99.90
39503;DHT22;26970;49.900;10.774;2022-12-24T07:26:31;8.50;99.90
39503;DHT22;26970;49.900;10.774;2022-12-24T07:28:56;8.50;99.90
39503;DHT22;26970;49.900;10.774;2022-12-24T07:31:22;8.50;99.90
39503;DHT22;26970;49.900;10.774;2022-12-24T07:33:48;8.40;99.90
39503;DHT22;26970;49.900;10.774;2022-12-24T07:36:19;8.40;99.90
39503;DHT22;26970;49.900;10.774;2022-12-24T07:38:45;8.30;99.90
39503;DHT22;26970;49.900;10.774;2022-12-24T07:41:11;8.20;99.90
39503;DHT22;26970;49.900;10.774;2022-12-24T07:43:37;8.20;99.90
39503;DHT22;26970;49.900;10.774;2022-12-24T07:46:03;8.20;99.90
39503;DHT22;26970;49.900;10.774;2022-12-24T07:48:29;8.10;99.90
39503;DHT22;26970;49.900;10.774;2022-12-24T07:50:56;8.10;99.90
39503;DHT22;26970;49.900;10.774;2022-12-24T07:53:22;8.20;99.90
39503;DHT22;26970;49.900;10.774;2022-12-24T07:55:48;8.10;99.90
39503;DHT22;26970;49.900;10.774;2022-12-24T07:58:14;8.10;99.90
39503;DHT22;26970;49.900;10.774;2022-12-24T08:00:39;8.20;99.90
39503;DHT22;26970;49.900;10.774;2022-12-24T08:03:05;8.20;99.90
39503;DHT22;26970;49.900;10.774;2022-12-24T08:05:35;9.20;99.90
39503;DHT22;26970;49.900;10.774;2022-12-24T08:08:00;8.40;99.90
39503;DHT22;26970;49.900;10.774;2022-12-24T08:10:26;8.40;99.90
39503;DHT22;26970;49.900;10.774;2022-12-24T08:12:52;8.40;99.90
39503;DHT22;26970;49.900;10.774;2022-12-24T08:15:18;8.50;99.90
39503;DHT22;26970;49.900;10.774;2022-12-24T08:17:43;8.50;99.90
39503;DHT22;26970;49.900;10.774;2022-12-24T08:20:10;8.60;99.90
39503;DHT22;26970;49.900;10.774;2022-12-24T08:22:36;8.60;99.90
39503;DHT22;26970;49.900;10.774;2022-12-24T08:25:01;8.60;99.90
39503;DHT22;26970;49.900;10.774;2022-12-24T08:27:27;8.70;99.90
39503;DHT22;26970;49.900;10.774;2022-12-24T08:29:52;8.70;99.90
39503;DHT22;26970;49.900;10.774;2022-12-24T08:32:18;8.70;99.90
39503;DHT22;26970;49.900;10.774;2022-12-24T08:34:43;8.80;99.90
39503;DHT22;26970;49.900;10.774;2022-12-24T08:37:09;9.10;99.90
39503;DHT22;26970;49.900;10.774;2022-12-24T08:39:34;8.90;99.90
39503;DHT22;26970;49.900;10.774;2022-12-24T08:42:00;9.00;99.90
39503;DHT22;26970;49.900;10.774;2022-12-24T08:44:25;9.00;99.90
39503;DHT22;26970;49.900;10.774;2022-12-24T08:46:51;9.00;99.90
39503;DHT22;26970;49.900;10.774;2022-12-24T08:49:16;9.00;99.90
39503;DHT22;26970;49.900;10.774;2022-12-24T08:51:42;9.10;99.90
39503;DHT22;26970;49.900;10.774;2022-12-24T08:54:07;9.10;99.90
39503;DHT22;26970;49.900;10.774;2022-12-24T08:56:33;9.10;99.90
39503;DHT22;26970;49.900;10.774;2022-12-24T08:58:59;9.20;99.90
39503;DHT22;26970;49.900;10.774;2022-12-24T09:01:24;9.30;99.90
39503;DHT22;26970;49.900;10.774;2022-12-24T09:03:50;9.60;99.90
39503;DHT22;26970;49.900;10.774;2022-12-24T09:06:16;9.50;99.90
39503;DHT22;26970;49.900;10.774;2022-12-24T09:08:41;9.50;99.90
39503;DHT22;26970;49.900;10.774;2022-12-24T09:11:10;9.50;99.90
39503;DHT22;26970;49.900;10.774;2022-12-24T09:13:36;9.60;99.90
39503;DHT22;26970;49.900;10.774;2022-12-24T09:16:02;9.60;99.90
39503;DHT22;26970;49.900;10.774;2022-12-24T09:18:28;9.60;99.90
39503;DHT22;26970;49.900;10.774;2022-12-24T09:21:01;9.60;99.90
39503;DHT22;26970;49.900;10.774;2022-12-24T09:23:28;9.60;99.90
39503;DHT22;26970;49.900;10.774;2022-12-24T09:25:53;9.60;99.90
39503;DHT22;26970;49.900;10.774;2022-12-24T09:28:19;9.70;99.90
39503;DHT22;26970;49.900;10.774;2022-12-24T09:30:54;9.70;99.90
39503;DHT22;26970;49.900;10.774;2022-12-24T09:33:20;9.70;99.90
39503;DHT22;26970;49.900;10.774;2022-12-24T09:35:45;9.70;99.90
39503;DHT22;26970;49.900;10.774;2022-12-24T09:38:11;9.80;99.90
39503;DHT22;26970;49.900;10.774;2022-12-24T09:40:39;9.90;99.90
39503;DHT22;26970;49.900;10.774;2022-12-24T09:43:15;9.90;99.90
39503;DHT22;26970;49.900;10.774;2022-12-24T09:45:53;10.00;99.90
39503;DHT22;26970;49.900;10.774;2022-12-24T09:48:27;10.10;99.90
39503;DHT22;26970;49.900;10.774;2022-12-24T09:51:07;10.10;99.90
39503;DHT22;26970;49.900;10.774;2022-12-24T09:53:39;10.20;99.90
39503;DHT22;26970;49.900;10.774;2022-12-24T09:56:12;10.20;99.90
39503;DHT22;26970;49.900;10.774;2022-12-24T09:58:42;10.20;99.90
39503;DHT22;26970;49.900;10.774;2022-12-24T10:01:13;10.30;99.90
39503;DHT22;26970;49.900;10.774;2022-12-24T10:03:40;10.40;99.90
39503;DHT22;26970;49.900;10.774;2022-12-24T10:11:32;10.60;99.90
39503;DHT22;26970;49.900;10.774;2022-12-24T10:17:28;10.70;99.90
39503;DHT22;26970;49.900;10.774;2022-12-24T10:25:34;10.70;99.90
39503;DHT22;26970;49.900;10.774;2022-12-24T10:28:04;10.70;99.90
39503;DHT22;26970;49.900;10.774;2022-12-24T10:30:33;10.80;99.90
39503;DHT22;26970;49.900;10.774;2022-12-24T10:33:00;10.90;99.90
39503;DHT22;26970;49.900;10.774;2022-12-24T10:35:28;10.90;99.90
39503;DHT22;26970;49.900;10.774;2022-12-24T10:37:56;10.90;99.90
39503;DHT22;26970;49.900;10.774;2022-12-24T10:40:42;10.90;99.90
39503;DHT22;26970;49.900;10.774;2022-12-24T10:43:20;10.90;99.90
39503;DHT22;26970;49.900;10.774;2022-12-24T10:45:49;10.90;99.90
39503;DHT22;26970;49.900;10.774;2022-12-24T10:48:26;10.90;99.90
39503;DHT22;26970;49.900;10.774;2022-12-24T10:51:12;10.80;99.90
39503;DHT22;26970;49.900;10.774;2022-12-24T10:53:47;10.80;99.90
39503;DHT22;26970;49.900;10.774;2022-12-24T10:56:15;10.80;99.90
39503;DHT22;26970;49.900;10.774;2022-12-24T10:58:52;10.80;99.90
39503;DHT22;26970;49.900;10.774;2022-12-24T11:01:41;10.90;99.90
39503;DHT22;26970;49.900;10.774;2022-12-24T11:04:05;11.00;99.90
39503;DHT22;26970;49.900;10.774;2022-12-24T11:06:32;11.10;99.90
39503;DHT22;26970;49.900;10.774;2022-12-24T11:09:19;11.10;99.90
39503;DHT22;26970;49.900;10.774;2022-12-24T11:11:46;11.10;99.90
39503;DHT22;26970;49.900;10.774;2022-12-24T11:14:18;11.00;99.90
39503;DHT22;26970;49.900;10.774;2022-12-24T11:16:53;10.90;99.90
39503;DHT22;26970;49.900;10.774;2022-12-24T11:22:16;10.90;99.90
39503;DHT22;26970;49.900;10.774;2022-12-24T11:24:43;10.90;99.90
39503;DHT22;26970;49.900;10.774;2022-12-24T11:27:42;10.90;99.90
39503;DHT22;26970;49.900;10.774;2022-12-24T11:30:27;10.90;99.90
39503;DHT22;26970;49.900;10.774;2022-12-24T11:33:16;10.70;99.90
39503;DHT22;26970;49.900;10.774;2022-12-24T11:35:50;10.60;99.90
39503;DHT22;26970;49.900;10.774;2022-12-24T11:38:20;10.30;99.90
39503;DHT22;26970;49.900;10.774;2022-12-24T11:40:50;10.20;99.90
39503;DHT22;26970;49.900;10.774;2022-12-24T11:43:21;10.10;99.90
39503;DHT22;26970;49.900;10.774;2022-12-24T11:45:55;10.00;99.90
39503;DHT22;26970;49.900;10.774;2022-12-24T11:48:29;9.90;99.90
39503;DHT22;26970;49.900;10.774;2022-12-24T11:50:59;9.80;99.90
39503;DHT22;26970;49.900;10.774;2022-12-24T11:54:08;9.60;99.90
39503;DHT22;26970;49.900;10.774;2022-12-24T11:56:40;9.40;99.90
39503;DHT22;26970;49.900;10.774;2022-12-24T11:59:27;9.40;99.90
39503;DHT22;26970;49.900;10.774;2022-12-24T12:02:10;9.30;99.90
39503;DHT22;26970;49.900;10.774;2022-12-24T12:04:41;9.30;99.90
39503;DHT22;26970;49.900;10.774;2022-12-24T12:07:19;9.30;99.90
39503;DHT22;26970;49.900;10.774;2022-12-24T12:12:29;9.50;99.90
39503;DHT22;26970;49.900;10.774;2022-12-24T12:15:26;9.60;99.90
39503;DHT22;26970;49.900;10.774;2022-12-24T12:17:55;9.80;99.90
39503;DHT22;26970;49.900;10.774;2022-12-24T12:20:29;9.90;99.90
39503;DHT22;26970;49.900;10.774;2022-12-24T12:23:10;10.00;99.90
39503;DHT22;26970;49.900;10.774;2022-12-24T12:28:57;10.00;99.90
39503;DHT22;26970;49.900;10.774;2022-12-24T12:31:40;9.90;99.90
39503;DHT22;26970;49.900;10.774;2022-12-24T12:36:50;9.80;99.90
39503;DHT22;26970;49.900;10.774;2022-12-24T12:39:17;9.70;99.90
39503;DHT22;26970;49.900;10.774;2022-12-24T12:44:31;9.50;99.90
39503;DHT22;26970;49.900;10.774;2022-12-24T12:48:02;9.40;99.90
39503;DHT22;26970;49.900;10.774;2022-12-24T12:50:24;9.40;99.90
39503;DHT22;26970;49.900;10.774;2022-12-24T12:57:51;9.50;99.90
39503;DHT22;26970;49.900;10.774;2022-12-24T13:00:19;9.60;99.90
39503;DHT22;26970;49.900;10.774;2022-12-24T13:11:14;9.70;99.90
39503;DHT22;26970;49.900;10.774;2022-12-24T13:19:07;9.60;99.90
39503;DHT22;26970;49.900;10.774;2022-12-24T13:21:44;9.50;99.90
39503;DHT22;26970;49.900;10.774;2022-12-24T13:24:18;9.50;99.90
39503;DHT22;26970;49.900;10.774;2022-12-24T13:27:16;9.50;99.90
39503;DHT22;26970;49.900;10.774;2022-12-24T13:29:50;9.50;99.90
39503;DHT22;26970;49.900;10.774;2022-12-24T13:35:00;9.50;99.90
39503;DHT22;26970;49.900;10.774;2022-12-24T13:47:56;9.50;99.90
39503;DHT22;26970;49.900;10.774;2022-12-24T13:53:27;9.40;99.90
39503;DHT22;26970;49.900;10.774;2022-12-24T13:56:21;9.40;99.90
39503;DHT22;26970;49.900;10.774;2022-12-24T14:01:38;9.40;99.90
39503;DHT22;26970;49.900;10.774;2022-12-24T14:04:07;9.40;99.90
39503;DHT22;26970;49.900;10.774;2022-12-24T14:06:40;9.40;99.90
39503;DHT22;26970;49.900;10.774;2022-12-24T14:09:11;9.40;99.90
39503;DHT22;26970;49.900;10.774;2022-12-24T14:14:39;9.40;99.90
39503;DHT22;26970;49.900;10.774;2022-12-24T14:17:19;9.50;99.90
39503;DHT22;26970;49.900;10.774;2022-12-24T14:19:55;9.50;99.90
39503;DHT22;26970;49.900;10.774;2022-12-24T14:27:51;9.40;99.90
39503;DHT22;26970;49.900;10.774;2022-12-24T14:30:22;9.30;99.90
39503;DHT22;26970;49.900;10.774;2022-12-24T14:32:49;9.20;99.90
39503;DHT22;26970;49.900;10.774;2022-12-24T14:38:04;9.00;99.90
39503;DHT22;26970;49.900;10.774;2022-12-24T14:40:32;9.00;99.90
39503;DHT22;26970;49.900;10.774;2022-12-24T14:43:19;8.90;99.90
39503;DHT22;26970;49.900;10.774;2022-12-24T14:45:53;8.90;99.90
39503;DHT22;26970;49.900;10.774;2022-12-24T14:54:28;8.80;99.90
39503;DHT22;26970;49.900;10.774;2022-12-24T15:07:44;8.70;99.90
39503;DHT22;26970;49.900;10.774;2022-12-24T15:12:50;8.60;99.90
39503;DHT22;26970;49.900;10.774;2022-12-24T15:15:17;8.30;99.90
39503;DHT22;26970;49.900;10.774;2022-12-24T15:17:44;8.40;99.90
39503;DHT22;26970;49.900;10.774;2022-12-24T15:20:15;8.40;99.90
39503;DHT22;26970;49.900;10.774;2022-12-24T15:22:44;8.30;99.90
39503;DHT22;26970;49.900;10.774;2022-12-24T15:25:40;9.10;99.90
39503;DHT22;26970;49.900;10.774;2022-12-24T15:28:16;8.20;99.90
39503;DHT22;26970;49.900;10.774;2022-12-24T15:30:42;8.20;99.90
39503;DHT22;26970;49.900;10.774;2022-12-24T15:33:09;8.10;99.90
39503;DHT22;26970;49.900;10.774;2022-12-24T15:41:01;8.00;99.90
39503;DHT22;26970;49.900;10.774;2022-12-24T15:43:32;7.90;99.90
39503;DHT22;26970;49.900;10.774;2022-12-24T15:45:57;7.90;99.90
39503;DHT22;26970;49.900;10.774;2022-12-24T15:48:26;7.90;99.90
39503;DHT22;26970;49.900;10.774;2022-12-24T15:51:01;7.80;99.90
39503;DHT22;26970;49.900;10.774;2022-12-24T15:53:34;7.70;99.90
39503;DHT22;26970;49.900;10.774;2022-12-24T15:56:13;7.70;99.90
39503;DHT22;26970;49.900;10.774;2022-12-24T15:58:51;7.60;99.90
39503;DHT22;26970;49.900;10.774;2022-12-24T16:01:23;7.60;99.90
39503;DHT22;26970;49.900;10.774;2022-12-24T16:06:15;7.60;99.90
39503;DHT22;26970;49.900;10.774;2022-12-24T16:08:42;7.60;99.90
39503;DHT22;26970;49.900;10.774;2022-12-24T16:11:23;7.60;99.90
39503;DHT22;26970;49.900;10.774;2022-12-24T16:16:17;7.60;99.90
39503;DHT22;26970;49.900;10.774;2022-12-24T16:19:00;7.50;99.90
39503;DHT22;26970;49.900;10.774;2022-12-24T16:21:33;7.50;99.90
39503;DHT22;26970;49.900;10.774;2022-12-24T16:24:28;7.50;99.90
39503;DHT22;26970;49.900;10.774;2022-12-24T16:26:55;7.40;99.90
39503;DHT22;26970;49.900;10.774;2022-12-24T16:29:22;7.40;99.90
39503;DHT22;26970;49.900;10.774;2022-12-24T16:31:53;7.40;99.90
39503;DHT22;26970;49.900;10.774;2022-12-24T16:34:23;7.40;99.90
39503;DHT22;26970;49.900;10.774;2022-12-24T16:36:49;7.30;99.90
39503;DHT22;26970;49.900;10.774;2022-12-24T16:39:29;7.30;99.90
39503;DHT22;26970;49.900;10.774;2022-12-24T16:41:57;7.30;99.90
39503;DHT22;26970;49.900;10.774;2022-12-24T16:44:42;7.20;99.90
39503;DHT22;26970;49.900;10.774;2022-12-24T16:47:29;7.20;99.90
39503;DHT22;26970;49.900;10.774;2022-12-24T16:49:58;7.20;99.90
39503;DHT22;26970;49.900;10.774;2022-12-24T16:52:26;7.20;99.90
39503;DHT22;26970;49.900;10.774;2022-12-24T16:54:54;7.20;99.90
39503;DHT22;26970;49.900;10.774;2022-12-24T16:57:21;7.10;99.90
39503;DHT22;26970;49.900;10.774;2022-12-24T16:59:47;7.10;99.90
39503;DHT22;26970;49.900;10.774;2022-12-24T17:02:15;7.10;99.90
39503;DHT22;26970;49.900;10.774;2022-12-24T17:04:41;7.00;99.90
39503;DHT22;26970;49.900;10.774;2022-12-24T17:07:09;7.10;99.90
39503;DHT22;26970;49.900;10.774;2022-12-24T17:09:35;7.00;99.90
39503;DHT22;26970;49.900;10.774;2022-12-24T17:12:01;7.10;99.90
39503;DHT22;26970;49.900;10.774;2022-12-24T17:14:26;7.10;99.90
39503;DHT22;26970;49.900;10.774;2022-12-24T17:16:52;7.10;99.90
39503;DHT22;26970;49.900;10.774;2022-12-24T17:19:18;7.00;99.90
39503;DHT22;26970;49.900;10.774;2022-12-24T17:21:44;7.00;99.90
39503;DHT22;26970;49.900;10.774;2022-12-24T17:24:09;6.90;99.90
39503;DHT22;26970;49.900;10.774;2022-12-24T17:26:36;6.10;99.90
39503;DHT22;26970;49.900;10.774;2022-12-24T17:29:03;6.80;99.90
39503;DHT22;26970;49.900;10.774;2022-12-24T17:31:30;6.80;99.90
39503;DHT22;26970;49.900;10.774;2022-12-24T17:33:56;6.80;99.90
39503;DHT22;26970;49.900;10.774;2022-12-24T17:36:22;6.80;99.90
39503;DHT22;26970;49.900;10.774;2022-12-24T17:38:47;6.80;99.90
39503;DHT22;26970;49.900;10.774;2022-12-24T17:41:18;6.80;99.90
39503;DHT22;26970;49.900;10.774;2022-12-24T17:43:45;6.80;99.90
39503;DHT22;26970;49.900;10.774;2022-12-24T17:46:16;6.80;99.90
39503;DHT22;26970;49.900;10.774;2022-12-24T17:48:42;6.80;99.90
39503;DHT22;26970;49.900;10.774;2022-12-24T17:51:13;6.80;99.90
39503;DHT22;26970;49.900;10.774;2022-12-24T17:53:41;6.80;99.90
39503;DHT22;26970;49.900;10.774;2022-12-24T17:56:08;6.80;99.90